createdAt,value
2018-12-14T06:02:59.629Z,12.50
2018-12-14T06:05:28.470Z,12.18
2018-12-14T06:07:57.307Z,11.30
2018-12-14T06:10:26.053Z,11.53
2018-12-14T06:12:55.102Z,13.58
2018-12-14T06:15:24.370Z,11.03
2018-12-14T06:17:53.515Z,12.37
2018-12-14T06:20:23.942Z,12.50
2018-12-14T07:52:22.071Z,10.10
2018-12-14T07:54:57.971Z,10.82
2018-12-14T11:34:09.551Z,13.65
2018-12-14T14:58:25.813Z,16.85
2018-12-14T15:00:57.599Z,20.40
2018-12-14T15:03:27.755Z,17.02
2018-12-14T15:05:57.186Z,17.98
2018-12-14T15:08:26.005Z,25.50
2018-12-14T15:10:54.894Z,22.37
2018-12-14T15:13:25.754Z,19.10
2018-12-14T15:15:54.735Z,18.35
2018-12-14T15:18:23.569Z,21.20
2018-12-14T15:20:52.513Z,15.90
2018-12-14T15:23:21.471Z,31.47
2018-12-14T15:25:50.286Z,25.13
2018-12-14T15:28:31.578Z,31.42
2018-12-14T15:31:36.456Z,20.57
2018-12-14T15:34:27.483Z,21.10
2018-12-14T15:37:18.932Z,21.95
2018-12-14T15:40:15.723Z,21.55
2018-12-14T15:49:25.419Z,22.37
2018-12-14T15:55:26.485Z,25.57
2018-12-14T16:01:02.497Z,26.20
2018-12-14T16:03:31.234Z,24.47
2018-12-14T16:06:00.165Z,21.17
2018-12-14T16:08:28.915Z,25.68
2018-12-14T16:10:57.972Z,33.10
2018-12-14T16:13:26.794Z,23.25
2018-12-14T16:15:55.591Z,30.30
2018-12-14T16:18:24.468Z,17.95
2018-12-14T16:20:53.467Z,15.07
2018-12-14T16:23:22.583Z,20.50
2018-12-14T16:25:51.747Z,17.52
2018-12-14T16:28:20.548Z,20.92
2018-12-14T16:30:49.553Z,22.45
2018-12-14T16:33:18.307Z,14.40
2018-12-14T16:35:47.286Z,14.53
2018-12-14T16:38:15.941Z,14.35
2018-12-14T16:40:44.743Z,16.37
2018-12-14T16:43:13.557Z,14.78
2018-12-14T16:45:42.529Z,22.60
2018-12-14T16:48:11.326Z,19.13
2018-12-14T16:50:40.353Z,16.97
2018-12-14T16:53:09.252Z,15.88
2018-12-14T16:55:38.305Z,15.30
2018-12-14T16:58:07.113Z,16.80
2018-12-14T17:00:35.953Z,14.68
2018-12-14T17:03:04.949Z,14.85
2018-12-14T17:05:34.110Z,13.25
2018-12-14T17:08:03.096Z,12.82
2018-12-14T17:10:32.028Z,13.70
2018-12-14T17:13:00.770Z,15.35
2018-12-14T17:15:33.391Z,14.68
2018-12-14T17:18:01.403Z,16.15
2018-12-14T17:20:30.177Z,16.10
2018-12-14T17:23:01.195Z,14.95
2018-12-14T17:25:32.388Z,12.90
2018-12-14T17:28:02.728Z,12.70
2018-12-14T17:30:35.469Z,13.13
2018-12-14T17:33:04.405Z,12.63
2018-12-14T17:35:42.806Z,14.93
2018-12-14T17:38:25.015Z,14.68
2018-12-14T17:41:01.952Z,12.95
2018-12-14T17:43:31.727Z,13.80
2018-12-14T17:46:00.740Z,14.63
2018-12-14T17:48:29.681Z,15.55
2018-12-14T17:50:59.760Z,19.48
2018-12-14T17:53:28.718Z,15.93
2018-12-14T17:55:57.657Z,17.23
2018-12-14T17:58:26.628Z,21.52
2018-12-14T18:00:58.643Z,15.32
2018-12-14T18:03:39.339Z,14.73
2018-12-14T18:06:08.369Z,13.78
2018-12-14T18:08:44.070Z,18.30
2018-12-14T18:11:20.694Z,13.87
2018-12-14T18:13:49.983Z,15.93
2018-12-14T18:16:19.229Z,14.45
2018-12-14T18:18:48.280Z,14.33
2018-12-14T18:21:17.401Z,13.07
2018-12-14T18:23:46.623Z,14.80
2018-12-14T18:26:15.440Z,13.80
2018-12-14T18:28:44.400Z,22.77
2018-12-14T18:31:13.358Z,13.53
2018-12-14T18:33:42.868Z,13.28
2018-12-14T18:36:12.005Z,15.07
2018-12-14T18:38:41.289Z,15.45
2018-12-14T18:41:10.468Z,14.27
2018-12-14T18:43:41.284Z,13.30
2018-12-14T18:46:11.210Z,16.37
2018-12-14T18:48:45.541Z,13.25
2018-12-14T18:51:14.879Z,16.42
2018-12-14T18:53:47.938Z,14.95
2018-12-14T18:56:19.467Z,14.38
2018-12-14T18:59:04.689Z,14.45
2018-12-14T19:01:35.094Z,14.20
2018-12-14T19:04:06.178Z,13.60
2018-12-14T19:06:37.633Z,14.28
2018-12-14T19:09:07.442Z,15.80
2018-12-14T19:11:38.930Z,15.77
2018-12-14T19:14:07.971Z,15.68
2018-12-14T19:16:36.980Z,14.47
2018-12-14T19:19:05.796Z,16.37
2018-12-14T19:21:34.951Z,15.45
2018-12-14T19:24:03.888Z,13.62
2018-12-14T19:26:32.756Z,14.83
2018-12-14T19:29:02.172Z,15.00
2018-12-14T19:31:31.960Z,14.10
2018-12-14T19:34:01.005Z,15.45
2018-12-14T19:36:29.926Z,17.67
2018-12-14T19:38:59.501Z,17.82
2018-12-14T19:41:29.807Z,19.97
2018-12-14T19:43:58.791Z,16.67
2018-12-14T19:46:27.834Z,13.85
2018-12-14T19:48:56.798Z,13.83
2018-12-14T19:51:25.672Z,13.55
2018-12-14T19:53:54.472Z,13.65
2018-12-14T19:56:23.342Z,12.90
2018-12-14T19:58:52.510Z,15.60
2018-12-14T20:01:21.520Z,13.98
2018-12-14T20:03:50.452Z,14.85
2018-12-14T20:06:19.240Z,14.58
2018-12-14T20:08:48.203Z,13.32
2018-12-14T20:11:17.419Z,14.63
2018-12-14T20:13:46.341Z,12.68
2018-12-14T20:16:17.271Z,14.45
2018-12-14T20:18:46.085Z,16.62
2018-12-14T20:21:15.513Z,16.50
2018-12-14T20:23:44.531Z,16.32
2018-12-14T20:26:14.426Z,13.20
2018-12-14T20:28:43.614Z,17.60
2018-12-14T20:31:12.446Z,15.65
2018-12-14T20:33:41.371Z,18.55
2018-12-14T20:36:10.219Z,17.20
2018-12-14T20:38:42.964Z,17.65
2018-12-14T20:41:16.673Z,28.60
2018-12-14T20:43:48.537Z,19.35
2018-12-14T20:46:20.293Z,25.10
2018-12-14T20:48:51.220Z,18.23
2018-12-14T20:51:27.937Z,13.70
2018-12-14T20:53:58.711Z,13.58
2018-12-14T20:56:29.179Z,13.72
2018-12-14T20:58:58.206Z,14.70
2018-12-14T21:01:27.383Z,14.68
2018-12-14T21:03:57.281Z,15.45
2018-12-14T21:06:27.446Z,15.68
2018-12-14T21:08:56.841Z,16.20
2018-12-14T21:11:27.630Z,13.43
2018-12-14T21:13:56.687Z,15.60
2018-12-14T21:16:26.482Z,14.38
2018-12-14T21:18:55.753Z,13.85
2018-12-14T21:21:24.729Z,15.85
2018-12-14T21:23:53.985Z,13.80
2018-12-14T21:26:23.803Z,13.18
2018-12-14T21:28:53.441Z,13.80
2018-12-14T21:31:22.906Z,12.93
2018-12-14T21:33:54.170Z,12.93
2018-12-14T21:36:23.926Z,12.82
2018-12-14T21:38:54.382Z,11.97
2018-12-14T21:41:23.541Z,15.20
2018-12-14T21:43:52.601Z,14.90
2018-12-14T21:46:21.861Z,14.53
2018-12-14T21:48:52.035Z,15.08
2018-12-14T21:51:21.086Z,14.07
2018-12-14T21:53:51.329Z,13.83
2018-12-14T21:56:22.671Z,15.50
2018-12-14T21:58:51.791Z,14.97
2018-12-14T22:01:20.964Z,12.70
2018-12-14T22:03:49.958Z,15.15
2018-12-14T22:06:19.166Z,13.98
2018-12-14T22:08:48.059Z,17.92
2018-12-14T22:11:17.060Z,14.13
2018-12-14T22:13:45.997Z,12.75
2018-12-14T22:16:14.991Z,12.70
2018-12-14T22:18:44.013Z,13.40
2018-12-14T22:21:12.956Z,14.20
2018-12-14T22:23:42.187Z,12.93
2018-12-14T22:26:11.146Z,12.05
2018-12-14T22:28:40.218Z,14.40
2018-12-14T22:31:09.228Z,14.93
2018-12-14T22:33:38.469Z,11.85
2018-12-14T22:36:07.508Z,12.55
2018-12-14T22:38:36.471Z,12.30
2018-12-14T22:41:05.872Z,13.83
2018-12-14T22:43:35.086Z,13.10
2018-12-14T22:46:04.841Z,13.20
2018-12-14T22:48:33.932Z,13.47
2018-12-14T22:51:12.192Z,13.68
2018-12-14T22:53:42.162Z,13.10
2018-12-14T22:56:11.935Z,13.13
2018-12-14T22:58:40.857Z,12.55
2018-12-14T23:01:09.695Z,11.88
2018-12-14T23:03:38.618Z,12.27
2018-12-14T23:06:07.395Z,14.30
2018-12-14T23:08:36.257Z,11.85
2018-12-14T23:11:05.149Z,13.30
2018-12-14T23:13:34.025Z,12.73
2018-12-14T23:16:03.775Z,12.28
2018-12-14T23:18:32.761Z,13.80
2018-12-14T23:21:01.767Z,12.28
2018-12-14T23:23:30.766Z,12.73
2018-12-14T23:25:59.615Z,13.90
2018-12-14T23:28:28.523Z,15.63
2018-12-14T23:30:57.427Z,14.03
2018-12-14T23:33:26.298Z,13.78
2018-12-14T23:35:55.161Z,12.35
2018-12-14T23:38:24.005Z,13.78
2018-12-14T23:40:52.794Z,14.23
2018-12-14T23:43:21.637Z,12.53
2018-12-14T23:45:50.525Z,15.87
2018-12-14T23:48:19.332Z,12.37
2018-12-14T23:50:48.231Z,12.20
2018-12-14T23:53:17.115Z,12.13
2018-12-14T23:55:45.882Z,13.38
2018-12-14T23:58:14.622Z,14.20
